createdAt,value
2024-04-23T00:01:57.848Z,4.55
2024-04-23T00:04:25.092Z,4.57
2024-04-23T00:07:01.887Z,4.10
2024-04-23T00:09:29.543Z,4.35
2024-04-23T00:11:56.702Z,4.70
2024-04-23T00:14:23.818Z,4.35
2024-04-23T00:17:05.429Z,4.82
2024-04-23T00:19:33.588Z,4.55
2024-04-23T00:22:00.955Z,4.70
2024-04-23T00:24:28.053Z,4.85
2024-04-23T00:27:02.385Z,4.65
2024-04-23T00:29:30.643Z,4.60
2024-04-23T00:31:57.946Z,4.97
2024-04-23T00:34:25.440Z,4.32
2024-04-23T00:37:00.084Z,5.22
2024-04-23T00:39:27.942Z,4.72
2024-04-23T00:41:55.159Z,4.75
2024-04-23T00:44:22.604Z,4.63
2024-04-23T00:46:50.675Z,4.70
2024-04-23T00:49:19.201Z,4.28
2024-04-23T00:51:52.277Z,4.70
2024-04-23T00:54:24.558Z,5.25
2024-04-23T00:56:55.298Z,4.57
2024-04-23T00:59:22.616Z,4.65
2024-04-23T01:01:51.611Z,4.75
2024-04-23T01:04:18.829Z,4.78
2024-04-23T01:06:50.932Z,4.63
2024-04-23T01:09:20.274Z,4.60
2024-04-23T01:11:49.182Z,4.97
2024-04-23T01:14:16.750Z,4.28
2024-04-23T01:16:47.172Z,4.55
2024-04-23T01:19:44.258Z,4.53
2024-04-23T01:22:22.386Z,4.25
2024-04-23T01:25:08.734Z,4.40
2024-04-23T01:27:37.223Z,4.38
2024-04-23T01:30:07.808Z,4.70
2024-04-23T01:32:39.331Z,4.65
2024-04-23T01:35:11.507Z,4.97
2024-04-23T01:37:42.753Z,4.93
2024-04-23T01:40:11.959Z,4.72
2024-04-23T01:42:40.718Z,4.53
2024-04-23T01:45:10.660Z,4.70
2024-04-23T01:47:37.864Z,5.35
2024-04-23T01:50:06.023Z,5.40
2024-04-23T01:52:33.363Z,5.00
2024-04-23T01:55:00.555Z,5.00
2024-04-23T01:57:27.607Z,4.90
2024-04-23T02:00:05.296Z,5.00
2024-04-23T02:02:38.134Z,5.35
2024-04-23T02:05:08.183Z,5.35
2024-04-23T02:07:35.771Z,4.97
2024-04-23T02:10:04.506Z,5.38
2024-04-23T02:12:31.778Z,5.07
2024-04-23T02:14:58.828Z,5.82
2024-04-23T02:17:26.102Z,5.65
2024-04-23T02:19:53.199Z,5.57
2024-04-23T02:22:20.746Z,5.22
2024-04-23T02:24:47.794Z,5.55
2024-04-23T02:27:14.840Z,5.13
2024-04-23T02:29:42.259Z,5.22
2024-04-23T02:32:09.352Z,5.00
2024-04-23T02:34:36.475Z,5.40
2024-04-23T02:37:03.535Z,5.28
2024-04-23T02:39:30.622Z,5.25
2024-04-23T02:41:57.757Z,4.50
2024-04-23T02:44:24.797Z,5.30
2024-04-23T02:46:52.301Z,5.18
2024-04-23T02:49:20.170Z,5.30
2024-04-23T02:51:51.349Z,4.90
2024-04-23T02:54:18.413Z,5.18
2024-04-23T02:56:48.422Z,5.15
2024-04-23T02:59:19.832Z,5.05
2024-04-23T03:01:47.246Z,4.72
2024-04-23T03:04:14.511Z,5.10
2024-04-23T03:06:41.635Z,5.75
2024-04-23T03:09:08.659Z,4.65
2024-04-23T03:11:35.811Z,5.47
2024-04-23T03:14:02.933Z,5.10
2024-04-23T03:16:29.995Z,5.00
2024-04-23T03:18:57.056Z,5.35
2024-04-23T03:21:24.116Z,5.32
2024-04-23T03:23:51.104Z,5.28
2024-04-23T03:26:18.107Z,5.45
2024-04-23T03:28:45.145Z,5.25
2024-04-23T03:31:12.325Z,6.13
2024-04-23T03:33:39.321Z,5.35
2024-04-23T03:36:07.396Z,5.93
2024-04-23T03:38:34.583Z,5.72
2024-04-23T03:41:01.855Z,5.82
2024-04-23T03:43:28.974Z,5.95
2024-04-23T03:45:56.042Z,5.35
2024-04-23T03:48:23.500Z,6.07
2024-04-23T03:50:50.575Z,5.55
2024-04-23T03:53:17.565Z,6.40
2024-04-23T03:55:44.661Z,6.43
2024-04-23T03:58:11.739Z,6.45
2024-04-23T04:00:38.735Z,7.03
2024-04-23T04:03:25.021Z,6.50
2024-04-23T04:06:10.098Z,6.72
2024-04-23T04:11:09.014Z,5.63
2024-04-23T04:13:40.904Z,6.30
2024-04-23T04:16:10.942Z,5.95
2024-04-23T04:18:38.478Z,6.38
2024-04-23T04:21:06.779Z,6.18
2024-04-23T04:23:34.379Z,6.18
2024-04-23T04:26:01.634Z,6.32
2024-04-23T04:28:28.773Z,5.95
2024-04-23T04:30:55.916Z,6.07
2024-04-23T04:33:23.245Z,6.80
2024-04-23T04:35:50.394Z,5.95
2024-04-23T04:38:17.637Z,6.25
2024-04-23T04:40:44.733Z,6.65
2024-04-23T04:43:11.739Z,6.72
2024-04-23T04:45:38.814Z,6.05
2024-04-23T04:48:06.418Z,6.45
2024-04-23T04:50:33.474Z,6.43
2024-04-23T04:53:00.582Z,7.00
2024-04-23T04:55:31.692Z,6.90
2024-04-23T04:57:59.240Z,7.32
2024-04-23T05:00:26.418Z,6.10
2024-04-23T05:02:53.530Z,6.80
2024-04-23T05:05:20.603Z,6.13
2024-04-23T05:07:47.672Z,7.10
2024-04-23T05:10:14.972Z,6.32
2024-04-23T05:12:42.031Z,6.72
2024-04-23T05:15:09.202Z,7.68
2024-04-23T05:17:36.389Z,6.65
2024-04-23T05:20:04.091Z,7.32
2024-04-23T05:22:31.312Z,6.10
2024-04-23T05:24:58.461Z,6.22
2024-04-23T05:27:25.583Z,6.75
2024-04-23T05:29:55.501Z,6.88
2024-04-23T05:32:44.447Z,6.55
2024-04-23T05:35:14.039Z,7.60
2024-04-23T05:37:41.817Z,7.40
2024-04-23T05:40:09.425Z,7.05
2024-04-23T05:42:36.506Z,7.07
2024-04-23T05:45:03.899Z,7.10
2024-04-23T05:47:31.158Z,7.13
2024-04-23T05:50:54.114Z,6.80
2024-04-23T05:54:36.600Z,7.85
2024-04-23T05:57:23.043Z,7.32
2024-04-23T05:59:50.109Z,7.38
2024-04-23T06:02:17.090Z,7.55
2024-04-23T06:04:44.165Z,7.95
2024-04-23T06:07:11.297Z,8.30
2024-04-23T06:09:38.336Z,8.45
2024-04-23T06:12:05.625Z,8.65
2024-04-23T06:14:32.647Z,8.65
2024-04-23T06:17:31.927Z,8.52
2024-04-23T06:20:07.190Z,8.20
2024-04-23T06:22:37.725Z,9.60
2024-04-23T06:25:06.934Z,9.60
2024-04-23T06:27:36.218Z,9.05
2024-04-23T06:30:16.541Z,9.32
2024-04-23T06:32:44.099Z,9.82
2024-04-23T06:35:14.546Z,9.05
2024-04-23T06:37:41.705Z,8.40
2024-04-23T06:40:10.609Z,9.38
2024-04-23T06:42:39.346Z,8.80
2024-04-23T06:45:07.514Z,8.80
2024-04-23T06:47:35.969Z,8.95
2024-04-23T06:50:04.586Z,9.02
2024-04-23T06:52:31.930Z,8.30
2024-04-23T06:55:02.250Z,7.60
2024-04-23T06:57:29.871Z,8.40
2024-04-23T06:59:57.112Z,7.50
2024-04-23T07:02:25.591Z,7.15
2024-04-23T07:04:52.922Z,6.90
2024-04-23T07:07:20.037Z,6.28
2024-04-23T07:09:47.063Z,7.10
2024-04-23T07:12:14.031Z,6.40
2024-04-23T07:14:41.405Z,6.97
2024-04-23T07:17:08.860Z,6.53
2024-04-23T07:19:35.993Z,6.00
2024-04-23T07:22:03.158Z,5.80
2024-04-23T07:24:30.294Z,5.22
2024-04-23T07:26:57.301Z,5.25
2024-04-23T07:29:24.478Z,4.50
2024-04-23T07:31:51.731Z,4.18
2024-04-23T07:34:18.773Z,4.38
2024-04-23T07:36:47.092Z,4.25
2024-04-23T07:39:15.067Z,3.97
2024-04-23T07:41:42.699Z,3.60
2024-04-23T07:44:10.184Z,3.70
2024-04-23T07:46:37.597Z,3.92
2024-04-23T07:49:04.852Z,3.78
2024-04-23T07:51:33.796Z,4.40
2024-04-23T07:54:01.220Z,4.18
2024-04-23T07:56:28.329Z,3.45
2024-04-23T07:58:55.559Z,3.10
2024-04-23T08:01:22.652Z,3.53
2024-04-23T08:03:49.698Z,3.83
2024-04-23T08:06:16.800Z,2.60
2024-04-23T08:08:43.913Z,2.83
2024-04-23T08:11:11.116Z,3.10
2024-04-23T08:13:38.300Z,3.25
2024-04-23T08:16:05.927Z,1.98
2024-04-23T08:18:35.032Z,2.10
2024-04-23T08:21:06.863Z,2.42
2024-04-23T08:23:34.820Z,2.22
2024-04-23T08:26:10.168Z,2.40
2024-04-23T08:28:37.847Z,2.58
2024-04-23T08:31:05.542Z,2.55
2024-04-23T08:33:35.360Z,2.85
2024-04-23T08:36:02.671Z,2.80
2024-04-23T08:38:30.961Z,2.70
2024-04-23T08:40:58.494Z,2.67
2024-04-23T08:43:36.094Z,2.60
2024-04-23T08:46:04.874Z,2.50
2024-04-23T08:48:34.985Z,2.72
2024-04-23T08:51:04.431Z,2.63
2024-04-23T08:53:33.913Z,2.90
2024-04-23T08:56:07.136Z,2.63
2024-04-23T08:58:38.595Z,2.50
2024-04-23T09:01:08.376Z,2.70
2024-04-23T09:03:48.469Z,2.45
2024-04-23T09:06:16.917Z,2.60
2024-04-23T09:08:46.180Z,2.35
2024-04-23T09:11:15.290Z,2.85
2024-04-23T09:13:42.802Z,2.38
2024-04-23T09:16:10.227Z,2.80
2024-04-23T09:18:37.829Z,2.60
2024-04-23T09:21:05.679Z,2.20
2024-04-23T09:23:32.795Z,2.20
2024-04-23T09:26:05.512Z,2.28
2024-04-23T09:28:36.255Z,2.50
2024-04-23T09:31:04.927Z,2.47
2024-04-23T09:33:33.421Z,2.78
2024-04-23T09:36:08.686Z,2.88
2024-04-23T09:38:41.313Z,2.83
2024-04-23T09:41:11.300Z,2.67
2024-04-23T09:43:39.230Z,3.42
2024-04-23T09:46:09.930Z,2.65
2024-04-23T09:48:40.138Z,2.70
2024-04-23T09:51:08.550Z,2.78
2024-04-23T09:53:38.309Z,3.15
2024-04-23T09:56:11.363Z,3.33
2024-04-23T09:58:38.484Z,2.95
2024-04-23T10:01:08.372Z,3.17
2024-04-23T10:03:42.108Z,3.08
2024-04-23T10:06:12.183Z,2.95
2024-04-23T10:08:53.159Z,2.67
2024-04-23T10:11:37.761Z,3.20
2024-04-23T10:14:41.123Z,2.95
2024-04-23T10:17:42.790Z,2.50
2024-04-23T10:20:12.318Z,2.50
2024-04-23T10:22:39.717Z,3.28
2024-04-23T10:25:08.159Z,2.65
2024-04-23T10:27:38.798Z,2.92
2024-04-23T10:30:08.061Z,2.80
2024-04-23T10:32:35.516Z,3.25
2024-04-23T10:35:05.747Z,2.83
2024-04-23T10:37:38.021Z,3.03
2024-04-23T10:40:07.516Z,3.42
2024-04-23T10:42:34.734Z,3.50
2024-04-23T10:45:02.784Z,2.97
2024-04-23T10:47:29.969Z,3.38
2024-04-23T10:49:57.078Z,2.80
2024-04-23T10:52:24.180Z,2.88
2024-04-23T10:54:51.567Z,2.85
2024-04-23T10:57:19.191Z,3.35
2024-04-23T10:59:46.404Z,2.65
2024-04-23T11:02:15.548Z,2.50
2024-04-23T11:04:48.376Z,2.90
2024-04-23T11:07:36.177Z,2.60
2024-04-23T11:10:07.653Z,2.95
2024-04-23T11:12:37.760Z,3.22
2024-04-23T11:15:17.737Z,2.30
2024-04-23T11:17:46.532Z,3.17
2024-04-23T11:20:14.991Z,2.58
2024-04-23T11:23:00.537Z,2.95
2024-04-23T11:25:35.715Z,3.03
2024-04-23T11:28:05.966Z,2.58
2024-04-23T11:30:33.880Z,2.70
2024-04-23T11:33:04.290Z,2.70
2024-04-23T11:35:34.051Z,2.42
2024-04-23T11:38:01.104Z,2.38
2024-04-23T11:40:28.364Z,2.63
2024-04-23T11:42:55.641Z,2.88
2024-04-23T11:45:22.770Z,2.78
2024-04-23T11:47:55.416Z,2.63
2024-04-23T11:50:25.456Z,2.67
2024-04-23T11:52:52.616Z,2.35
2024-04-23T11:55:20.932Z,3.03
2024-04-23T11:57:49.104Z,2.95
2024-04-23T12:00:17.319Z,2.90
2024-04-23T12:02:44.911Z,2.78
2024-04-23T12:05:12.517Z,2.70
2024-04-23T12:07:41.343Z,2.63
2024-04-23T12:10:10.402Z,2.45
2024-04-23T12:12:42.653Z,2.90
2024-04-23T12:15:10.864Z,2.83
2024-04-23T12:17:41.198Z,2.90
2024-04-23T12:20:12.846Z,3.10
2024-04-23T12:22:45.976Z,3.10
2024-04-23T12:25:15.769Z,2.90
2024-04-23T12:27:47.991Z,2.88
2024-04-23T12:30:20.265Z,3.20
2024-04-23T12:32:51.376Z,3.13
2024-04-23T12:35:21.979Z,3.28
2024-04-23T12:37:50.024Z,2.90
2024-04-23T12:40:18.201Z,3.08
2024-04-23T12:42:47.324Z,3.40
2024-04-23T12:45:14.797Z,3.58
2024-04-23T12:47:42.215Z,3.15
2024-04-23T12:50:09.605Z,4.10
2024-04-23T12:52:37.336Z,3.75
2024-04-23T12:55:05.245Z,3.42
2024-04-23T12:57:32.448Z,3.35
2024-04-23T12:59:59.450Z,3.17
2024-04-23T13:02:26.605Z,3.40
2024-04-23T13:04:53.776Z,3.03
2024-04-23T13:07:21.814Z,3.33
2024-04-23T13:09:48.912Z,3.58
2024-04-23T13:12:15.999Z,3.70
2024-04-23T13:14:43.088Z,3.50
2024-04-23T13:17:10.249Z,3.35
2024-04-23T13:19:37.512Z,3.47
2024-04-23T13:22:08.641Z,3.70
2024-04-23T13:24:35.749Z,3.70
2024-04-23T13:27:02.758Z,3.05
2024-04-23T13:29:32.012Z,3.17
2024-04-23T13:32:01.062Z,3.08
2024-04-23T13:34:28.450Z,3.40
2024-04-23T13:36:55.566Z,3.80
2024-04-23T13:39:23.375Z,3.70
2024-04-23T13:41:51.892Z,3.72
2024-04-23T13:44:18.968Z,4.13
2024-04-23T13:46:45.995Z,3.50
2024-04-23T13:49:15.778Z,3.70
2024-04-23T13:51:43.039Z,3.75
2024-04-23T13:54:10.125Z,3.65
2024-04-23T13:56:37.253Z,3.97
2024-04-23T13:59:04.663Z,3.83
2024-04-23T14:01:32.703Z,4.22
2024-04-23T14:04:00.079Z,4.35
2024-04-23T14:06:27.167Z,4.15
2024-04-23T14:08:54.308Z,4.07
2024-04-23T14:11:21.385Z,3.80
2024-04-23T14:13:48.454Z,3.47
2024-04-23T14:16:15.724Z,4.50
2024-04-23T14:18:43.148Z,4.60
2024-04-23T14:21:10.435Z,4.03
2024-04-23T14:23:39.359Z,4.00
2024-04-23T14:26:06.617Z,3.75
2024-04-23T14:28:35.404Z,4.00
2024-04-23T14:31:05.962Z,4.00
2024-04-23T14:33:34.028Z,4.07
2024-04-23T14:36:04.386Z,3.80
2024-04-23T14:38:32.370Z,3.45
2024-04-23T14:41:01.316Z,3.55
2024-04-23T14:43:29.003Z,3.80
2024-04-23T14:45:56.536Z,4.18
2024-04-23T14:48:24.743Z,3.75
2024-04-23T14:50:52.316Z,4.05
2024-04-23T14:53:21.753Z,4.15
2024-04-23T14:56:05.362Z,4.35
2024-04-23T14:58:33.958Z,4.25
2024-04-23T15:01:02.389Z,4.28
2024-04-23T15:03:32.650Z,4.38
2024-04-23T15:06:04.662Z,3.67
2024-04-23T15:08:32.798Z,4.00
2024-04-23T15:10:59.906Z,4.10
2024-04-23T15:13:27.009Z,4.00
2024-04-23T15:16:02.048Z,4.07
2024-04-23T15:21:05.846Z,4.20
2024-04-23T15:23:33.902Z,3.95
2024-04-23T15:26:01.677Z,4.22
2024-04-23T15:28:31.822Z,4.40
2024-04-23T15:31:06.856Z,4.55
2024-04-23T15:33:39.702Z,4.75
2024-04-23T15:36:13.277Z,4.75
2024-04-23T15:38:49.319Z,4.43
2024-04-23T15:41:17.761Z,4.63
2024-04-23T15:43:48.457Z,4.75
2024-04-23T15:46:15.755Z,4.47
2024-04-23T15:48:43.148Z,4.65
2024-04-23T15:51:13.168Z,4.57
2024-04-23T15:53:40.195Z,4.40
2024-04-23T15:56:08.538Z,4.97
2024-04-23T15:58:35.685Z,4.78
2024-04-23T16:01:04.172Z,5.22
2024-04-23T16:03:35.012Z,4.65
2024-04-23T16:06:03.953Z,4.90
2024-04-23T16:08:32.631Z,4.95
2024-04-23T16:11:01.924Z,4.35
2024-04-23T16:13:30.049Z,6.20
2024-04-23T16:15:58.879Z,5.80
2024-04-23T16:18:30.497Z,5.40
2024-04-23T16:21:02.347Z,5.32
2024-04-23T16:23:29.698Z,5.13
2024-04-23T16:26:02.354Z,4.50
2024-04-23T16:28:29.816Z,4.45
2024-04-23T16:31:04.909Z,5.03
2024-04-23T16:33:37.412Z,5.03
2024-04-23T16:36:09.375Z,4.65
2024-04-23T16:38:38.096Z,5.00
2024-04-23T16:41:08.394Z,4.97
2024-04-23T16:43:36.674Z,4.95
2024-04-23T16:46:09.714Z,4.68
2024-04-23T16:48:37.985Z,4.55
2024-04-23T16:51:07.432Z,5.10
2024-04-23T16:53:35.167Z,4.28
2024-04-23T16:56:02.291Z,4.88
2024-04-23T16:58:29.443Z,4.75
2024-04-23T17:00:56.538Z,4.80
2024-04-23T17:03:24.099Z,8.02
2024-04-23T17:05:51.904Z,5.10
2024-04-23T17:08:19.067Z,5.45
2024-04-23T17:10:47.607Z,4.90
2024-04-23T17:13:15.219Z,4.28
2024-04-23T17:15:43.843Z,4.47
2024-04-23T17:18:11.248Z,6.25
2024-04-23T17:20:38.423Z,6.28
2024-04-23T17:23:05.596Z,5.95
2024-04-23T17:25:36.861Z,4.63
2024-04-23T17:28:04.650Z,4.63
2024-04-23T17:30:31.791Z,5.28
2024-04-23T17:32:58.911Z,4.65
2024-04-23T17:35:26.035Z,4.28
2024-04-23T17:37:53.166Z,4.93
2024-04-23T17:40:20.288Z,4.40
2024-04-23T17:42:47.498Z,4.63
2024-04-23T17:45:15.123Z,4.80
2024-04-23T17:47:42.359Z,3.80
2024-04-23T17:50:11.727Z,4.68
2024-04-23T17:52:39.419Z,4.03
2024-04-23T17:55:08.487Z,4.18
2024-04-23T17:57:36.078Z,3.88
2024-04-23T18:00:06.417Z,3.60
2024-04-23T18:02:40.049Z,4.20
2024-04-23T18:05:08.100Z,3.97
2024-04-23T18:07:35.291Z,4.07
2024-04-23T18:10:02.949Z,3.60
2024-04-23T18:12:30.369Z,3.55
2024-04-23T18:14:58.091Z,4.05
2024-04-23T18:17:25.443Z,4.00
2024-04-23T18:19:52.780Z,4.07
2024-04-23T18:22:19.937Z,4.35
2024-04-23T18:24:46.940Z,4.00
2024-04-23T18:27:16.758Z,4.60
2024-04-23T18:29:43.798Z,4.18
2024-04-23T18:32:11.661Z,4.15
2024-04-23T18:34:38.873Z,4.03
2024-04-23T18:37:06.091Z,4.03
2024-04-23T18:39:33.231Z,4.65
2024-04-23T18:42:01.141Z,3.97
2024-04-23T18:44:28.193Z,4.50
2024-04-23T18:46:55.240Z,6.07
2024-04-23T18:49:22.370Z,3.55
2024-04-23T18:51:49.786Z,4.90
2024-04-23T18:54:17.274Z,4.30
2024-04-23T18:56:44.767Z,4.05
2024-04-23T18:59:12.027Z,4.30
2024-04-23T19:01:41.561Z,2.90
2024-04-23T19:04:08.849Z,6.22
2024-04-23T19:06:35.836Z,4.85
2024-04-23T19:09:03.099Z,3.60
2024-04-23T19:11:32.604Z,3.72
2024-04-23T19:14:10.765Z,3.92
2024-04-23T19:16:43.830Z,3.80
2024-04-23T19:19:11.403Z,5.63
2024-04-23T19:21:38.562Z,5.95
2024-04-23T19:24:06.303Z,3.92
2024-04-23T19:26:33.906Z,7.28
2024-04-23T19:29:01.115Z,6.43
2024-04-23T19:31:28.207Z,3.30
2024-04-23T19:33:55.522Z,3.35
2024-04-23T19:36:28.561Z,2.95
2024-04-23T19:38:55.644Z,2.80
2024-04-23T19:41:22.702Z,3.67
2024-04-23T19:43:53.307Z,2.63
2024-04-23T19:46:26.570Z,3.85
2024-04-23T19:48:57.050Z,6.75
2024-04-23T19:51:25.096Z,3.00
2024-04-23T19:53:52.270Z,3.95
2024-04-23T19:56:55.827Z,4.10
2024-04-23T19:59:24.592Z,3.08
2024-04-23T20:01:51.907Z,3.97
2024-04-23T20:04:18.977Z,4.20
2024-04-23T20:06:46.309Z,3.95
2024-04-23T20:09:15.728Z,4.10
2024-04-23T20:11:43.600Z,4.30
2024-04-23T20:14:11.003Z,4.15
2024-04-23T20:16:38.070Z,4.57
2024-04-23T20:19:05.226Z,4.75
2024-04-23T20:21:32.283Z,4.55
2024-04-23T20:24:00.253Z,4.70
2024-04-23T20:26:27.408Z,5.05
2024-04-23T20:28:54.761Z,5.00
2024-04-23T20:31:22.423Z,5.18
2024-04-23T20:33:50.135Z,5.32
2024-04-23T20:36:17.471Z,6.10
2024-04-23T20:38:44.620Z,5.72
2024-04-23T20:41:11.967Z,6.13
2024-04-23T20:43:39.195Z,5.90
2024-04-23T20:46:09.620Z,5.88
2024-04-23T20:48:36.977Z,5.53
2024-04-23T20:51:04.961Z,5.72
2024-04-23T20:53:32.159Z,6.00
2024-04-23T20:56:07.096Z,5.82
2024-04-23T20:58:34.888Z,6.20
2024-04-23T21:01:09.745Z,5.72
2024-04-23T21:03:38.963Z,6.28
2024-04-23T21:06:14.110Z,6.63
2024-04-23T21:08:42.581Z,6.63
2024-04-23T21:11:16.398Z,6.68
2024-04-23T21:13:45.032Z,6.50
2024-04-23T21:16:14.786Z,6.47
2024-04-23T21:18:43.578Z,6.85
2024-04-23T21:21:12.261Z,6.35
2024-04-23T21:23:39.494Z,6.20
2024-04-23T21:26:07.074Z,6.32
2024-04-23T21:28:34.130Z,5.95
2024-04-23T21:31:01.951Z,6.28
2024-04-23T21:33:29.497Z,6.55
2024-04-23T21:36:01.766Z,6.20
2024-04-23T21:38:28.884Z,6.18
2024-04-23T21:40:56.140Z,6.60
2024-04-23T21:43:23.159Z,6.38
2024-04-23T21:45:50.299Z,6.80
2024-04-23T21:48:17.379Z,6.20
2024-04-23T21:50:44.473Z,5.90
2024-04-23T21:53:11.904Z,6.70
2024-04-23T21:55:38.936Z,6.30
2024-04-23T21:58:05.933Z,6.38
2024-04-23T22:00:32.957Z,6.82
2024-04-23T22:03:00.100Z,6.93
2024-04-23T22:05:27.329Z,6.50
2024-04-23T22:07:54.419Z,5.85
2024-04-23T22:10:24.274Z,7.78
2024-04-23T22:12:52.082Z,6.55
2024-04-23T22:15:28.110Z,7.80
2024-04-23T22:18:02.959Z,7.68
2024-04-23T22:20:30.152Z,7.97
2024-04-23T22:22:57.283Z,6.75
2024-04-23T22:25:24.311Z,6.90
2024-04-23T22:27:51.387Z,6.82
2024-04-23T22:30:18.679Z,7.65
2024-04-23T22:32:45.811Z,6.85
2024-04-23T22:35:13.042Z,6.78
2024-04-23T22:37:40.119Z,6.60
2024-04-23T22:40:07.819Z,7.05
2024-04-23T22:42:39.080Z,7.90
2024-04-23T22:45:08.166Z,6.78
2024-04-23T22:47:35.751Z,6.22
2024-04-23T22:50:03.007Z,6.63
2024-04-23T22:52:29.994Z,6.18
2024-04-23T22:54:57.029Z,4.55
2024-04-23T22:57:24.137Z,3.45
2024-04-23T22:59:51.143Z,2.10
2024-04-23T23:02:18.281Z,1.30
2024-04-23T23:04:45.422Z,1.20
2024-04-23T23:07:12.526Z,1.00
2024-04-23T23:09:39.843Z,1.20
2024-04-23T23:12:07.383Z,1.08
2024-04-23T23:14:34.558Z,1.27
2024-04-23T23:17:01.688Z,0.90
2024-04-23T23:19:28.755Z,0.93
2024-04-23T23:21:56.356Z,0.82
2024-04-23T23:24:23.526Z,1.13
2024-04-23T23:26:50.530Z,0.88
2024-04-23T23:29:17.624Z,0.90
2024-04-23T23:31:44.797Z,1.05
2024-04-23T23:34:11.901Z,1.20
2024-04-23T23:36:38.975Z,1.23
2024-04-23T23:39:06.111Z,0.85
2024-04-23T23:41:33.318Z,1.00
2024-04-23T23:44:00.496Z,1.08
2024-04-23T23:46:27.650Z,1.30
2024-04-23T23:48:55.032Z,0.98
2024-04-23T23:51:22.071Z,1.00
2024-04-23T23:53:49.112Z,1.20
2024-04-23T23:56:16.184Z,0.90
2024-04-23T23:58:43.218Z,1.10
